CheckWX is a tool to help pilots better visualize weather data.  It is not intended as a substitute for an official pre-flight weather briefing.

00:58:04 UTC

KDLN METAR
Dillon Airport
Dillon, Montana, USA
Current

1 hour ago

KDLN 182353Z AUTO 34009KT 10SM FEW100 22/09 A2998 RMK AO2 SLP112 T02220094 10250 20194 56015
Observed
Jun-18 @ 23:53 UTC
Wind
  • 340° at 9 KTS
Visibility
10 SM
Flight Rules
VFR
Cloud Levels
  • Few at 10,000' AGL
Temperature
22°C / 72°F
Dewpoint
C / 48°F
Humidity
44%
Altimeter
29.98" Hg
Pressure
1015.22 hPa
Previous

2 hours ago

KDLN 182253Z AUTO 35005KT 10SM FEW090 22/09 A2999 RMK AO2 SLP117 T02220089
Observed
Jun-18 @ 22:53 UTC
Wind
  • 350° at 5 KTS
Visibility
10 SM
Flight Rules
VFR
Cloud Levels
  • Few at 9,000' AGL
Temperature
22°C / 72°F
Dewpoint
C / 48°F
Humidity
44%
Altimeter
29.99" Hg
Pressure
1015.62 hPa
Previous

3 hours ago

KDLN 182153Z AUTO 00000KT 10SM CLR 23/04 A3000 RMK AO2 SLP118 T02330039
Observed
Jun-18 @ 21:53 UTC
Visibility
10 SM
Flight Rules
VFR
Cloud Levels
  • Clear skies
Temperature
23°C / 73°F
Dewpoint
C / 39°F
Humidity
29%
Altimeter
30" Hg
Pressure
1015.92 hPa